Terminal Aerodrome Forecast
Issued by NWS

Home | Current Version | Previous Version | Text Only | Print | Product List | Glossary On
Versions: 1 2 3 4 5 6 7 8 9 10 11 12 13 14 15 16 17
000
FTUS45 KFGZ 171100
TAFGCN
TAF
KGCN 171135Z 1712/1812 VRB04KT P6SM BKN050 OVC090
     FM171700 VRB06KT P6SM VCSH BKN040 OVC150
      TEMPO 1719/1723 4SM TSRA OVC030CB
     FM180300 VRB05KT P6SM VCSH SCT045 OVC080=

USA.gov is the U.S. government's official web portal to all federal, state and local government web resources and services.